Terminal Aerodrome Forecast
Issued by NWS Atlanta, GA

Current Version | Previous Version | Text Only | Print | Product List | Glossary On
Versions: 1 2 3 4 5 6 7 8 9 10 11 12 13 14 15 16 17 18 19 20 21 22 23 24 25 26 27 28 29 30 31 32 33 34 35 36 37 38 39 40 41 42 43
000
FTUS42 KFFC 280345 AAD
TAFATL
TAF AMD
KATL 280345Z 2804/2906 15004KT P6SM SCT040 BKN250
      TEMPO 2804/2806 VRB20G35KT 3SM -TSRA BKN015CB
     FM280600 VRB03KT P6SM SCT020 BKN080
     FM281200 15005KT P6SM BKN015
     FM281400 16006KT P6SM VCSH BKN025 PROB30 2816/2822 3SM -TSRA
      BKN030CB
     FM282200 14004KT P6SM BKN035
     FM290400 10003KT P6SM BKN050=

USA.gov is the U.S. government's official web portal to all federal, state and local government web resources and services.